Lincoln Fly Road

*Note: All times are displayed in the local standard time of the station location.
**Rain - Equipment is designed to accurately record liquid precipitation; under conditions when precipitation is not in liquid form, the data displayed may not properly reflect rainfall values.

Date Max Temp
(°C)
Min Temp
(°C)
Avg Temp
(°C)
Rain (mm) Avg RH (%)
Mon, Apr 23, 2018 13.0 2.2 7.8 0.0 44.6
Sun, Apr 22, 2018 15.4 -0.3 8.6 0.0 35.2
Sat, Apr 21, 2018 14.1 -1.2 5.8 0.0 46.3
Fri, Apr 20, 2018 8.0 -1.4 2.7 0.0 52.8
Thu, Apr 19, 2018 3.6 0.0 1.3 0.0 61.6
Wed, Apr 18, 2018 2.6 -0.2 1.2 0.0 70.9
Tue, Apr 17, 2018 1.0 -1.7 -0.2 0.4 69.8
DateTime Avg Temp (°C) Rain (mm) RH (%)
Tue, Apr 24, 2018 18:00 12.0 0.4 73.5
Tue, Apr 24, 2018 17:00 13.1 0.0 62.5
Tue, Apr 24, 2018 16:00 15.0 0.0 46.8
Tue, Apr 24, 2018 15:00 16.4 0.0 37.0
Tue, Apr 24, 2018 14:00 16.6 0.0 37.0
Tue, Apr 24, 2018 13:00 15.9 0.0 37.0
Tue, Apr 24, 2018 12:00 14.9 0.0 39.8
Tue, Apr 24, 2018 11:00 13.0 0.0 50.8
Tue, Apr 24, 2018 10:00 12.4 0.0 57.8
Tue, Apr 24, 2018 09:00 12.3 0.0 58.3
Tue, Apr 24, 2018 08:00 11.7 0.0 55.8
Tue, Apr 24, 2018 07:00 10.7 0.0 58.5
Tue, Apr 24, 2018 06:00 11.0 0.0 56.8
Tue, Apr 24, 2018 05:00 11.2 0.0 53.5
Tue, Apr 24, 2018 04:00 10.2 0.0 52.5
Tue, Apr 24, 2018 03:00 8.9 0.0 52.8
Tue, Apr 24, 2018 02:00 6.7 0.0 57.0
Tue, Apr 24, 2018 01:00 4.6 0.0 68.8
Tue, Apr 24, 2018 00:00 4.9 0.0 62.5
Mon, Apr 23, 2018 23:00 5.0 0.0 62.0
Mon, Apr 23, 2018 22:00 5.2 0.0 60.3
Mon, Apr 23, 2018 21:00 5.4 0.0 58.8
Mon, Apr 23, 2018 20:00 6.8 0.0 53.8
Mon, Apr 23, 2018 19:00 8.8 0.0 46.0
Mon, Apr 23, 2018 18:00 10.2 0.0 40.3
Mon, Apr 23, 2018 17:00 11.4 0.0 38.8
Mon, Apr 23, 2018 16:00 12.6 0.0 34.0
Mon, Apr 23, 2018 15:00 12.8 0.0 33.3
Mon, Apr 23, 2018 14:00 12.1 0.0 36.8
Mon, Apr 23, 2018 13:00 12.1 0.0 36.8
Mon, Apr 23, 2018 12:00 11.4 0.0 41.5
Mon, Apr 23, 2018 11:00 11.4 0.0 46.3
Mon, Apr 23, 2018 10:00 10.6 0.0 37.8
Mon, Apr 23, 2018 09:00 7.3 0.0 51.5
Mon, Apr 23, 2018 08:00 6.6 0.0 43.8
Mon, Apr 23, 2018 07:00 3.2 0.0 48.5
Mon, Apr 23, 2018 06:00 2.6 0.0 55.3
Mon, Apr 23, 2018 05:00 4.2 0.0 37.8
Mon, Apr 23, 2018 04:00 5.9 0.0 32.5
Mon, Apr 23, 2018 03:00 6.3 0.0 32.3
Mon, Apr 23, 2018 02:00 5.9 0.0 35.3
Mon, Apr 23, 2018 01:00 5.2 0.0 44.3
Mon, Apr 23, 2018 00:00 8.5 0.0 27.5
Sun, Apr 22, 2018 23:00 9.3 0.0 26.3
Sun, Apr 22, 2018 22:00 9.6 0.0 24.8
Sun, Apr 22, 2018 21:00 10.6 0.0 23.0
Sun, Apr 22, 2018 20:00 13.6 0.0 21.0
Sun, Apr 22, 2018 19:00 15.2 0.0 14.5


asterix Register now to access more data! asterix